Airfield :







YOU CAN JOIN US ON...

 
LOGIN :

Register | Disclaimer

   EN    FR    IT 

 









Legend :    VFR   Marginal VFR   IFR   Intensive IFR   Very Intensive IFR
Visi :
Ceiling :
>= 8 km
>= 3000ft
5 to 8 km
1000 to 3000 ft
1500m to 5 km
500 to 1000 ft
800 to 1500m
200 to 500 ft
< 800m
< 200 ft
Symbols :   Thunderstorms  Fog  Heavy snow  Heavy precipitations  Wind > 20 kt






- Airport Elevation : 83 ft


KBHB - Hancock County-Bar Harbor

CURRENT METAR :
  • 310756Z AUTO 28004KT 10SM SCT060 BKN075 OVC090 12/12 A2976 RMK AO2 RAB0657E55 SLP080 P0000 T01220117

EXPIRED METARs :
  • 310656Z AUTO 00000KT 10SM BKN070 BKN090 OVC100 11/11 A2975 RMK AO2 SLP077 T01110106
  • 310556Z AUTO 00000KT 9SM SCT090 11/10 A2976 RMK AO2 SLP079 T01060100 10211 20106 56010

TAF KBHB
Valid from the 31 at 06:00 until the 01 at 06:00 UTC


310538Z 3106/0106 VRB03KT P6SM SKC
FM310800 00000KT P6SM SCT050
FM310900 31003KT P6SM VCSH BKN045
FM311000 31007KT P6SM BKN045
FM311300 31014KT P6SM SCT050
FM010200 31008KT P6SM FEW060
FM010500 30008KT P6SM SKC
KZBW FIR / North America



MET'MAP, your aeronautical weather chart ! - Copyright ORBIFLY December 2007 - Disclaimer

ORBIFLY MET'MAP TEAM :

Programming & Development : Alexandra Zaïnal
Concept & original design : Baudouin d'Aumeries
Assistance for programming : Marc-Olivier Méhu
Technical & hardware support : Manuel Goepfert

Contact : metmap@orbifly.com




SOURCES & CREDITS :

   NOAA